KPBF/PBF METAR and TAF weather

Enter ICAO airport designator
Station Type Date Time Source
KPBF METAR 2019/04/22 17:53 UTC NOAA

KPBF 221753Z AUTO 20010KT 10SM CLR 25/07 A3012 RMK AO2 SLP198 T02500072 10250 20122 58013


Station Type Date Time Source
KPBF Decoded METAR 2019/04/22 17:53 UTC NOAA

PINE BLUFF GRIDER FIELD, AR, United States (KPBF) 34-11N 091-56W 62M
Apr 22, 2019 - 01:53 PM EDT / 2019.04.22 1753 UTC
Wind: from the SSW (200 degrees) at 12 MPH (10 KT):0
Visibility: 10 mile(s):0
Sky conditions: clear
Temperature: 77.0 F (25.0 C)
Dew Point: 45.0 F (7.2 C)
Relative Humidity: 32%
Pressure (altimeter): 30.12 in. Hg (1019 hPa)
Pressure tendency: 0.04 inches (1.3 hPa) lower than three hours ago
ob: KPBF 221753Z AUTO 20010KT 10SM CLR 25/07 A3012 RMK AO2 SLP198 T02500072 10250 20122 58013
cycle: 18

Station Type Date Time Source
KPBF TAF 2019/04/22 18:30 UTC NOAA

TAF KPBF 221728Z 2218/2318 19013G20KT P6SM FEW150 SCT250
FM230000 18004KT P6SM SCT050 OVC150
FM231500 20010KT P6SM BKN150

Example: see airport list